Time;durP1;ratioP1;P1;durP2;ratioP2;P2;SDS_P1;SDS_P2;PMS_P1;PMS_P2;Temp;Humidity;BMP_temperature;BMP_pressure;BME280_temperature;BME280_humidity;BME280_pressure;Samples;Min_cycle;Max_cycle;Signal;HPM_P1;HPM_P2
2023/10/20 00:01:16;;;;;;;8.88;4.05;;;7.80;99.90;;;;;;4892338;29;20047;-85
2023/10/20 00:03:41;;;;;;;9.15;4.50;;;7.80;99.90;;;;;;4861428;29;20040;-84
2023/10/20 00:06:08;;;;;;;8.52;3.75;;;7.80;99.90;;;;;;4862155;29;20534;-84
2023/10/20 00:08:34;;;;;;;8.70;3.67;;;7.80;99.90;;;;;;4893864;29;20044;-84
2023/10/20 00:11:07;;;;;;;8.27;3.67;;;7.80;99.90;;;;;;4874662;29;20055;-86
2023/10/20 00:13:34;;;;;;;9.85;4.10;;;7.80;99.90;;;;;;4874170;29;20055;-85
2023/10/20 00:16:00;;;;;;;8.68;4.25;;;7.80;99.90;;;;;;4871734;29;20060;-84
2023/10/20 00:18:25;;;;;;;8.80;3.67;;;7.80;99.90;;;;;;4874453;29;20123;-85
2023/10/20 00:20:51;;;;;;;9.05;4.43;;;7.80;99.90;;;;;;4876857;29;20191;-84
2023/10/20 00:23:17;;;;;;;9.15;4.20;;;7.80;99.90;;;;;;4881069;29;20056;-83
2023/10/20 00:25:43;;;;;;;9.07;4.20;;;7.80;99.90;;;;;;4855991;29;20504;-85
2023/10/20 00:28:09;;;;;;;9.35;4.40;;;7.90;99.90;;;;;;4875515;29;20045;-85
2023/10/20 00:30:35;;;;;;;9.13;4.22;;;7.80;99.90;;;;;;4845693;29;20053;-86
2023/10/20 00:33:01;;;;;;;9.43;4.25;;;7.80;99.90;;;;;;4844041;29;20044;-84
2023/10/20 00:35:27;;;;;;;9.13;4.30;;;7.80;99.90;;;;;;4859719;29;20052;-85
2023/10/20 00:37:53;;;;;;;8.90;3.97;;;7.90;99.90;;;;;;4880137;29;20108;-84
2023/10/20 00:40:22;;;;;;;8.98;4.10;;;7.90;99.90;;;;;;4861565;29;20082;-85
2023/10/20 00:42:48;;;;;;;9.13;4.43;;;7.90;99.90;;;;;;4883870;29;20037;-85
2023/10/20 00:45:13;;;;;;;9.45;4.05;;;7.80;99.90;;;;;;4887353;29;20426;-85
2023/10/20 00:47:39;;;;;;;10.98;4.47;;;8.00;99.90;;;;;;4870099;29;20041;-84
2023/10/20 00:50:11;;;;;;;8.82;4.00;;;7.80;99.90;;;;;;4891252;29;20051;-84
2023/10/20 00:52:38;;;;;;;8.93;4.20;;;7.80;99.90;;;;;;4871684;29;20048;-85
2023/10/20 00:55:09;;;;;;;9.75;4.35;;;7.80;99.90;;;;;;4880346;29;20138;-85
2023/10/20 00:57:36;;;;;;;9.82;4.28;;;7.80;99.90;;;;;;4831336;29;20036;-83
2023/10/20 01:00:04;;;;;;;9.00;4.20;;;7.80;99.90;;;;;;4858631;29;20044;-84
2023/10/20 01:02:30;;;;;;;9.80;4.80;;;7.90;99.90;;;;;;4834127;29;20041;-85
2023/10/20 01:04:57;;;;;;;9.73;4.32;;;7.80;99.90;;;;;;4865837;29;20040;-84
2023/10/20 01:07:24;;;;;;;9.73;4.65;;;7.80;99.90;;;;;;4872813;29;20045;-84
2023/10/20 01:09:50;;;;;;;9.50;4.68;;;7.90;99.90;;;;;;4860770;29;20040;-83
2023/10/20 01:12:16;;;;;;;9.38;4.88;;;7.80;99.90;;;;;;4874190;29;20040;-86
2023/10/20 01:14:42;;;;;;;11.05;5.40;;;7.80;99.90;;;;;;4843160;29;20056;-85
2023/10/20 01:17:10;;;;;;;10.30;4.75;;;7.80;99.90;;;;;;4893451;29;20553;-85
2023/10/20 01:19:39;;;;;;;10.23;5.50;;;7.80;99.90;;;;;;4862561;29;20103;-84
2023/10/20 01:22:05;;;;;;;10.35;5.20;;;7.80;99.90;;;;;;4869785;29;20300;-84
2023/10/20 01:24:31;;;;;;;11.95;5.50;;;7.80;99.90;;;;;;4844102;29;20113;-86
2023/10/20 01:26:57;;;;;;;11.55;5.72;;;7.80;99.90;;;;;;4847669;29;20045;-86
2023/10/20 01:29:23;;;;;;;11.43;5.47;;;7.80;99.90;;;;;;4878399;29;20088;-86
2023/10/20 01:31:49;;;;;;;11.90;5.95;;;7.80;99.90;;;;;;4860002;29;20037;-85
2023/10/20 01:34:15;;;;;;;11.07;5.88;;;7.80;99.90;;;;;;4874363;29;20044;-85
2023/10/20 01:36:41;;;;;;;11.05;5.65;;;7.80;99.90;;;;;;4860755;29;20102;-85
2023/10/20 01:39:08;;;;;;;11.68;5.90;;;7.80;99.90;;;;;;4872987;29;20375;-85
2023/10/20 01:41:33;;;;;;;11.10;5.70;;;7.80;99.90;;;;;;4871003;29;20041;-83
2023/10/20 01:43:59;;;;;;;11.68;6.00;;;7.80;99.90;;;;;;4874800;29;20117;-85
2023/10/20 01:46:25;;;;;;;11.73;6.00;;;7.80;99.90;;;;;;4859507;29;20492;-85
2023/10/20 01:48:50;;;;;;;13.52;6.10;;;7.80;99.90;;;;;;4860102;29;20116;-84
2023/10/20 01:51:16;;;;;;;11.93;5.72;;;7.80;99.90;;;;;;4845518;29;20123;-86
2023/10/20 01:53:42;;;;;;;11.13;6.00;;;7.80;99.90;;;;;;4875120;29;20420;-84
2023/10/20 01:56:07;;;;;;;10.65;5.20;;;7.80;99.90;;;;;;4872066;29;20094;-85
2023/10/20 01:58:33;;;;;;;12.25;6.38;;;7.80;99.90;;;;;;4874719;29;20119;-84
2023/10/20 02:00:59;;;;;;;12.68;6.53;;;7.80;99.90;;;;;;4854295;29;20052;-85
2023/10/20 02:03:24;;;;;;;11.80;6.05;;;7.80;99.90;;;;;;4843107;29;20060;-84
2023/10/20 02:05:50;;;;;;;11.80;6.25;;;7.80;99.90;;;;;;4877146;29;20461;-86
2023/10/20 02:08:16;;;;;;;12.30;6.35;;;8.00;99.90;;;;;;4857215;29;20434;-83
2023/10/20 02:10:45;;;;;;;12.30;6.35;;;7.90;99.90;;;;;;4856974;29;20044;-84
2023/10/20 02:13:11;;;;;;;11.18;5.78;;;7.80;99.90;;;;;;4859529;29;20107;-83
2023/10/20 02:15:36;;;;;;;12.02;6.53;;;7.80;99.90;;;;;;4882703;29;20049;-86
2023/10/20 02:18:02;;;;;;;13.13;6.70;;;7.80;99.90;;;;;;4877512;29;20099;-86
2023/10/20 02:20:28;;;;;;;12.82;6.63;;;7.80;99.90;;;;;;4875944;29;20059;-84
2023/10/20 02:22:54;;;;;;;11.73;6.43;;;7.80;99.90;;;;;;4856623;29;20097;-86
2023/10/20 02:25:20;;;;;;;14.25;6.15;;;7.80;99.90;;;;;;4874181;29;20067;-84
2023/10/20 02:27:47;;;;;;;11.38;5.90;;;7.80;99.90;;;;;;4878793;29;20098;-85
2023/10/20 02:30:14;;;;;;;12.60;6.35;;;7.80;99.90;;;;;;4894319;29;20041;-83
2023/10/20 02:32:40;;;;;;;12.57;6.65;;;7.80;99.90;;;;;;4878200;29;20064;-84
2023/10/20 02:35:08;;;;;;;11.88;6.68;;;7.80;99.90;;;;;;4876338;29;20045;-84
2023/10/20 02:37:33;;;;;;;13.90;7.35;;;7.80;99.90;;;;;;4863643;29;20439;-84
2023/10/20 02:39:59;;;;;;;13.10;6.68;;;7.80;99.90;;;;;;4878451;29;20041;-83
2023/10/20 02:42:25;;;;;;;12.10;6.40;;;7.80;99.90;;;;;;4878012;29;20101;-84
2023/10/20 02:44:50;;;;;;;13.77;6.57;;;7.90;99.90;;;;;;4877755;29;20439;-85
2023/10/20 02:47:16;;;;;;;12.52;6.85;;;7.80;99.90;;;;;;4893532;29;20041;-86
2023/10/20 02:49:42;;;;;;;12.50;6.45;;;7.80;99.90;;;;;;4863971;29;20047;-84
2023/10/20 02:52:08;;;;;;;13.85;7.05;;;7.80;99.90;;;;;;4864503;29;20044;-85
2023/10/20 02:54:36;;;;;;;15.25;7.57;;;7.80;99.90;;;;;;4878933;29;20052;-85
2023/10/20 02:57:05;;;;;;;13.07;6.90;;;7.80;99.90;;;;;;4862242;29;20123;-86
2023/10/20 02:59:31;;;;;;;12.27;6.57;;;7.70;99.90;;;;;;4862327;29;20032;-84
2023/10/20 03:01:57;;;;;;;13.02;7.00;;;7.70;99.90;;;;;;4861484;29;20041;-84
2023/10/20 03:04:22;;;;;;;14.38;7.15;;;7.70;99.90;;;;;;4892875;29;20134;-83
2023/10/20 03:06:48;;;;;;;12.38;6.57;;;7.80;99.90;;;;;;4894553;29;20044;-85
2023/10/20 03:09:14;;;;;;;13.10;6.68;;;7.70;99.90;;;;;;4895151;29;20093;-86
2023/10/20 03:11:40;;;;;;;11.90;6.22;;;7.70;99.90;;;;;;4892595;29;20041;-84
2023/10/20 03:14:06;;;;;;;14.35;7.50;;;7.70;99.90;;;;;;4876740;29;20488;-85
2023/10/20 03:16:37;;;;;;;11.57;6.22;;;7.70;99.90;;;;;;4861612;29;20122;-85
2023/10/20 03:19:04;;;;;;;12.30;6.63;;;7.70;99.90;;;;;;4864672;29;20101;-85
2023/10/20 03:21:30;;;;;;;11.68;6.70;;;7.70;99.90;;;;;;4847941;29;20041;-85
2023/10/20 03:23:56;;;;;;;11.90;6.60;;;7.70;99.90;;;;;;4879148;29;20040;-85
2023/10/20 03:26:22;;;;;;;12.20;6.40;;;7.70;99.90;;;;;;4840066;29;20641;-85
2023/10/20 03:28:48;;;;;;;12.25;6.55;;;7.70;99.90;;;;;;4843284;29;20056;-84
2023/10/20 03:31:13;;;;;;;12.35;6.85;;;7.70;99.90;;;;;;4868633;29;20455;-84
2023/10/20 03:33:40;;;;;;;13.85;7.13;;;7.70;99.90;;;;;;4862205;29;20041;-84
2023/10/20 03:36:08;;;;;;;15.20;7.28;;;7.70;99.90;;;;;;4849019;29;20049;-84
2023/10/20 03:38:34;;;;;;;11.65;6.03;;;7.60;99.90;;;;;;4870624;29;20570;-83
2023/10/20 03:41:09;;;;;;;11.95;6.43;;;7.60;99.90;;;;;;4887211;29;20040;-83
2023/10/20 03:43:35;;;;;;;13.25;5.95;;;7.60;99.90;;;;;;4878297;29;20040;-82
2023/10/20 03:46:03;;;;;;;12.20;6.47;;;7.60;99.90;;;;;;4866638;29;20072;-85
2023/10/20 03:48:29;;;;;;;12.82;6.63;;;7.60;99.90;;;;;;4864365;29;20092;-83
2023/10/20 03:50:55;;;;;;;12.40;6.47;;;7.60;99.90;;;;;;4863007;29;20055;-84
2023/10/20 03:53:22;;;;;;;11.45;6.55;;;7.60;99.90;;;;;;4876459;29;20048;-84
2023/10/20 03:56:05;;;;;;;12.13;6.03;;;7.60;99.90;;;;;;4858530;29;20048;-86
2023/10/20 03:58:31;;;;;;;11.25;5.65;;;7.60;99.90;;;;;;4882666;29;20044;-82
2023/10/20 04:01:01;;;;;;;11.10;5.75;;;7.60;99.90;;;;;;4875880;29;20037;-85
2023/10/20 04:03:27;;;;;;;12.48;6.32;;;7.60;99.90;;;;;;4842509;29;20037;-83
2023/10/20 04:05:54;;;;;;;10.55;5.55;;;7.60;99.90;;;;;;4861938;29;20143;-84
2023/10/20 04:08:20;;;;;;;10.77;5.45;;;7.60;99.90;;;;;;4859840;29;20411;-83
2023/10/20 04:10:46;;;;;;;10.52;5.70;;;7.60;99.90;;;;;;4876571;29;20048;-83
2023/10/20 04:13:12;;;;;;;11.65;5.60;;;7.60;99.90;;;;;;4861691;29;20044;-84
2023/10/20 04:15:42;;;;;;;11.55;5.57;;;7.60;99.90;;;;;;4877242;29;20036;-84
2023/10/20 04:18:08;;;;;;;10.32;5.00;;;7.60;99.90;;;;;;4894834;29;20045;-86
2023/10/20 04:20:39;;;;;;;9.88;5.07;;;7.60;99.90;;;;;;4857437;29;20112;-84
2023/10/20 04:23:07;;;;;;;10.82;4.97;;;7.60;99.90;;;;;;4859846;29;20067;-86
2023/10/20 04:25:39;;;;;;;10.40;5.07;;;7.60;99.90;;;;;;4848041;29;20115;-85
2023/10/20 04:49:59;;;;;;;9.05;4.20;;;7.60;99.90;;;;;;4876938;29;20392;-84
2023/10/20 04:57:51;;;;;;;10.13;4.07;;;7.70;99.90;;;;;;4854237;29;20044;-84
2023/10/20 05:08:05;;;;;;;8.80;3.63;;;7.70;99.90;;;;;;4876268;29;20148;-85
2023/10/20 05:10:31;;;;;;;7.90;3.60;;;7.70;99.90;;;;;;4857137;29;20698;-86
2023/10/20 05:12:57;;;;;;;9.18;3.88;;;7.70;99.90;;;;;;4844069;29;20079;-84
2023/10/20 05:15:24;;;;;;;8.00;3.35;;;7.70;99.90;;;;;;4857376;29;20069;-83
2023/10/20 05:17:50;;;;;;;8.32;3.58;;;7.70;99.90;;;;;;4864411;29;20471;-85
2023/10/20 05:20:20;;;;;;;8.00;3.30;;;7.70;99.90;;;;;;4857192;29;20060;-87
2023/10/20 05:22:47;;;;;;;8.30;3.50;;;7.70;99.90;;;;;;4866880;29;20578;-85
2023/10/20 05:25:14;;;;;;;9.10;4.00;;;7.80;99.90;;;;;;4853246;29;20507;-84
2023/10/20 05:27:40;;;;;;;9.90;3.67;;;7.70;99.90;;;;;;4853106;29;20053;-85
2023/10/20 05:30:07;;;;;;;8.38;3.40;;;7.80;99.90;;;;;;4833076;29;20041;-85
2023/10/20 05:32:34;;;;;;;8.70;3.53;;;7.70;99.90;;;;;;4838703;29;20132;-84
2023/10/20 05:35:00;;;;;;;7.22;3.00;;;7.70;99.90;;;;;;4821040;29;20699;-84
2023/10/20 05:37:26;;;;;;;8.77;3.53;;;7.70;99.90;;;;;;4855520;29;20411;-85
2023/10/20 05:39:53;;;;;;;9.05;3.95;;;7.70;99.90;;;;;;4851982;29;20041;-84
2023/10/20 05:42:18;;;;;;;8.30;3.25;;;7.70;99.90;;;;;;4839237;29;20052;-84
2023/10/20 05:47:30;;;;;;;8.07;2.97;;;7.70;99.90;;;;;;4854214;29;20048;-84
2023/10/20 05:49:57;;;;;;;8.55;3.60;;;7.80;99.90;;;;;;4853226;29;20116;-84
2023/10/20 05:52:22;;;;;;;8.55;3.20;;;7.80;99.90;;;;;;4837295;29;20434;-84
2023/10/20 05:54:49;;;;;;;7.70;3.00;;;7.80;99.90;;;;;;4853991;29;20101;-84
2023/10/20 05:57:16;;;;;;;7.82;3.20;;;7.80;99.90;;;;;;4855422;29;20093;-83
2023/10/20 05:59:43;;;;;;;8.27;2.92;;;7.80;99.90;;;;;;4836955;29;20040;-83
2023/10/20 06:02:08;;;;;;;7.88;2.95;;;7.80;99.90;;;;;;4837902;29;20037;-85
2023/10/20 06:04:35;;;;;;;6.07;2.50;;;7.80;99.90;;;;;;4836314;29;20059;-83
2023/10/20 06:07:01;;;;;;;7.80;3.00;;;7.80;99.90;;;;;;4855866;29;20049;-83
2023/10/20 06:09:28;;;;;;;7.28;2.63;;;7.80;99.90;;;;;;4851746;29;20055;-83
2023/10/20 06:11:54;;;;;;;7.18;2.60;;;7.80;99.90;;;;;;4841278;29;20128;-82
2023/10/20 06:14:25;;;;;;;8.05;2.78;;;7.80;99.90;;;;;;4857448;29;20135;-83
2023/10/20 06:16:52;;;;;;;6.97;2.67;;;7.80;99.90;;;;;;4857754;29;20179;-83
2023/10/20 06:19:18;;;;;;;6.82;2.58;;;7.80;99.90;;;;;;4859198;29;20505;-83
2023/10/20 06:21:44;;;;;;;6.07;2.17;;;7.80;99.90;;;;;;4859692;29;20033;-84
2023/10/20 06:24:09;;;;;;;6.05;2.10;;;7.80;99.90;;;;;;4858037;29;20105;-83
2023/10/20 06:26:35;;;;;;;7.00;2.25;;;7.80;99.90;;;;;;4876016;29;20475;-85
2023/10/20 06:29:02;;;;;;;6.13;2.30;;;7.80;99.90;;;;;;4857365;29;20108;-83
2023/10/20 06:31:41;;;;;;;5.45;2.03;;;7.70;99.90;;;;;;4860438;29;20037;-85
2023/10/20 06:37:08;;;;;;;5.28;1.88;;;7.70;99.90;;;;;;4867480;29;20041;-85
2023/10/20 06:39:38;;;;;;;5.32;2.03;;;7.70;99.90;;;;;;4891185;29;20048;-84
2023/10/20 06:42:09;;;;;;;5.22;1.90;;;7.70;99.90;;;;;;4860887;29;20100;-85
2023/10/20 06:44:34;;;;;;;5.45;2.10;;;7.70;99.90;;;;;;4888526;29;20699;-83
2023/10/20 06:47:00;;;;;;;5.72;1.98;;;7.70;99.90;;;;;;4861828;29;20486;-85
2023/10/20 06:49:27;;;;;;;6.38;2.20;;;7.60;99.90;;;;;;4889815;29;20081;-85
2023/10/20 06:51:53;;;;;;;6.15;2.40;;;7.60;99.90;;;;;;4873600;29;20041;-84
2023/10/20 06:54:19;;;;;;;5.43;2.08;;;7.60;99.90;;;;;;4874158;29;20599;-85
2023/10/20 06:56:45;;;;;;;5.32;2.05;;;7.60;99.90;;;;;;4859099;29;20162;-84
2023/10/20 06:59:15;;;;;;;5.78;2.10;;;7.60;99.90;;;;;;4874013;29;20041;-85
2023/10/20 07:01:42;;;;;;;6.43;2.08;;;7.60;99.90;;;;;;4888683;29;20282;-83
2023/10/20 07:04:10;;;;;;;5.75;2.10;;;7.70;99.90;;;;;;4857129;29;20037;-83
2023/10/20 07:06:36;;;;;;;6.50;1.98;;;7.60;99.90;;;;;;4874385;29;20120;-83
2023/10/20 07:09:12;;;;;;;4.82;1.90;;;7.60;99.90;;;;;;4890923;29;20119;-84
2023/10/20 07:11:39;;;;;;;7.30;2.13;;;7.60;99.90;;;;;;4874979;29;20120;-83
2023/10/20 07:14:07;;;;;;;6.38;2.30;;;7.60;99.90;;;;;;4872682;29;20033;-82
2023/10/20 07:16:33;;;;;;;6.45;2.38;;;7.60;99.90;;;;;;4857695;29;20041;-83
2023/10/20 07:19:00;;;;;;;6.28;2.20;;;7.50;99.90;;;;;;4876101;29;20047;-82
2023/10/20 07:21:26;;;;;;;6.25;2.30;;;7.60;99.90;;;;;;4872882;29;20052;-83
2023/10/20 07:23:52;;;;;;;5.30;2.00;;;7.60;99.90;;;;;;4843402;29;20091;-84
2023/10/20 07:26:18;;;;;;;5.10;1.98;;;7.60;99.90;;;;;;4856482;29;20128;-83
2023/10/20 07:28:45;;;;;;;6.10;2.13;;;7.50;99.90;;;;;;4876221;29;20048;-83
2023/10/20 07:31:15;;;;;;;4.82;2.00;;;7.50;99.90;;;;;;4870864;29;20055;-84
2023/10/20 07:33:41;;;;;;;5.43;2.08;;;7.50;99.90;;;;;;4858569;29;20109;-84
2023/10/20 07:36:07;;;;;;;5.90;2.40;;;7.50;99.90;;;;;;4870743;29;20516;-83
2023/10/20 07:38:33;;;;;;;6.47;2.20;;;7.50;99.90;;;;;;4870985;29;20036;-83
2023/10/20 07:41:11;;;;;;;5.90;2.13;;;7.50;99.90;;;;;;4875748;29;20518;-84
2023/10/20 07:43:41;;;;;;;5.55;2.30;;;7.50;99.90;;;;;;4873345;29;20040;-85
2023/10/20 07:46:13;;;;;;;5.75;2.17;;;7.40;99.90;;;;;;4858067;29;20116;-83
2023/10/20 07:48:39;;;;;;;7.47;2.30;;;7.40;99.90;;;;;;4856489;29;20063;-83
2023/10/20 07:51:05;;;;;;;6.03;2.15;;;7.40;99.90;;;;;;4891385;29;20041;-84
2023/10/20 07:53:30;;;;;;;6.45;2.40;;;7.40;99.90;;;;;;4868369;29;20522;-83
2023/10/20 07:55:56;;;;;;;7.30;2.70;;;7.40;99.90;;;;;;4858649;29;20051;-83
2023/10/20 07:58:22;;;;;;;7.78;2.60;;;7.40;99.90;;;;;;4873113;29;20048;-84
2023/10/20 08:00:48;;;;;;;7.68;2.55;;;7.40;99.90;;;;;;4870573;29;20041;-83
2023/10/20 08:03:14;;;;;;;7.90;2.60;;;7.40;99.90;;;;;;4873514;29;20423;-83
2023/10/20 08:05:40;;;;;;;6.22;2.30;;;7.40;99.90;;;;;;4871013;29;20041;-83
2023/10/20 08:08:06;;;;;;;6.78;2.47;;;7.40;99.90;;;;;;4870854;29;20056;-84
2023/10/20 08:10:35;;;;;;;6.53;2.53;;;7.30;99.90;;;;;;4887461;29;20047;-83
2023/10/20 08:13:02;;;;;;;5.78;2.17;;;7.30;99.90;;;;;;4837383;29;20044;-82
2023/10/20 08:15:28;;;;;;;5.88;2.10;;;7.30;99.90;;;;;;4859919;29;20070;-83
2023/10/20 08:17:57;;;;;;;5.72;2.10;;;7.30;99.90;;;;;;4866076;29;20487;-83
2023/10/20 08:20:22;;;;;;;6.22;2.17;;;7.30;99.90;;;;;;4874327;29;20056;-82
2023/10/20 08:22:48;;;;;;;5.57;2.15;;;7.30;99.90;;;;;;4859122;29;20374;-84
2023/10/20 08:25:15;;;;;;;5.43;2.35;;;7.20;99.90;;;;;;4855662;29;20231;-85
2023/10/20 08:27:41;;;;;;;6.30;2.30;;;7.30;99.90;;;;;;4888394;29;20048;-84
2023/10/20 08:30:07;;;;;;;5.28;2.00;;;7.30;99.90;;;;;;4841225;29;20037;-83
2023/10/20 08:32:33;;;;;;;6.07;2.35;;;7.20;99.90;;;;;;4859066;29;20124;-84
2023/10/20 08:34:59;;;;;;;5.85;2.03;;;7.20;99.90;;;;;;4868786;29;20040;-84
2023/10/20 08:37:25;;;;;;;5.82;2.00;;;7.20;99.90;;;;;;4875932;29;20052;-83
2023/10/20 08:39:51;;;;;;;6.10;1.95;;;7.20;99.90;;;;;;4858170;29;20036;-84
2023/10/20 08:42:17;;;;;;;4.97;2.03;;;7.20;99.90;;;;;;4892227;29;20407;-84
2023/10/20 08:44:44;;;;;;;6.38;2.00;;;7.20;99.90;;;;;;4872223;29;20051;-83
2023/10/20 08:47:14;;;;;;;5.53;2.10;;;7.20;99.90;;;;;;4844531;29;20048;-83
2023/10/20 08:49:41;;;;;;;5.35;2.00;;;7.20;99.90;;;;;;4858705;29;20040;-83
2023/10/20 08:52:13;;;;;;;5.35;1.92;;;7.20;99.90;;;;;;4872996;29;20403;-83
2023/10/20 08:54:38;;;;;;;5.80;1.90;;;7.10;99.90;;;;;;4869674;29;20045;-83
2023/10/20 08:57:05;;;;;;;6.03;2.10;;;7.10;99.90;;;;;;4873292;29;20088;-84
2023/10/20 08:59:31;;;;;;;5.10;1.83;;;7.10;99.90;;;;;;4889728;29;20032;-81
2023/10/20 09:01:58;;;;;;;6.35;2.05;;;7.10;99.90;;;;;;4872793;29;20116;-82
2023/10/20 09:04:25;;;;;;;5.30;1.92;;;7.10;99.90;;;;;;4871710;29;20052;-82
2023/10/20 09:06:52;;;;;;;5.63;1.90;;;7.10;99.90;;;;;;4885119;29;20052;-82
2023/10/20 09:09:21;;;;;;;4.43;1.80;;;7.10;99.90;;;;;;4885182;29;20080;-84
2023/10/20 09:11:47;;;;;;;6.35;1.98;;;7.10;99.90;;;;;;4854924;29;20045;-82
2023/10/20 09:14:14;;;;;;;5.47;1.85;;;7.10;99.90;;;;;;4869398;29;20048;-82
2023/10/20 09:16:42;;;;;;;4.90;1.83;;;7.20;99.90;;;;;;4871763;29;20068;-82
2023/10/20 09:19:12;;;;;;;4.88;1.80;;;7.10;99.90;;;;;;4869530;29;20407;-82
2023/10/20 09:21:42;;;;;;;4.72;1.80;;;7.20;99.90;;;;;;4889659;29;20415;-82
2023/10/20 09:24:09;;;;;;;4.75;1.70;;;7.20;99.90;;;;;;4873523;29;20467;-82
2023/10/20 09:26:37;;;;;;;4.45;1.50;;;7.20;99.90;;;;;;4886978;29;20044;-83
2023/10/20 09:29:06;;;;;;;3.00;1.50;;;7.10;99.90;;;;;;4870917;29;20052;-82
2023/10/20 09:31:34;;;;;;;3.72;1.63;;;7.10;99.90;;;;;;4857171;29;20089;-81
2023/10/20 09:34:00;;;;;;;4.05;1.50;;;7.10;99.90;;;;;;4859462;29;20101;-82
2023/10/20 09:36:29;;;;;;;4.30;1.65;;;7.10;99.90;;;;;;4857550;29;20087;-83
2023/10/20 09:38:57;;;;;;;3.63;1.60;;;7.00;99.90;;;;;;4876559;29;20714;-82
2023/10/20 09:41:29;;;;;;;3.60;1.60;;;7.10;99.90;;;;;;4877051;29;20040;-82
2023/10/20 09:44:07;;;;;;;3.33;1.40;;;7.10;99.90;;;;;;4875821;29;20048;-82
2023/10/20 09:46:54;;;;;;;2.72;1.45;;;7.00;99.90;;;;;;4877230;29;20399;-83
2023/10/20 09:49:22;;;;;;;3.67;1.50;;;7.00;99.90;;;;;;4873571;29;20411;-82
2023/10/20 09:51:49;;;;;;;3.33;1.50;;;7.00;99.90;;;;;;4877086;29;20056;-82
2023/10/20 09:54:18;;;;;;;3.55;1.60;;;7.00;99.90;;;;;;4860610;29;20161;-82
2023/10/20 09:56:45;;;;;;;6.13;1.67;;;7.00;99.90;;;;;;4876002;29;20399;-82
2023/10/20 09:59:23;;;;;;;4.45;1.75;;;7.00;99.90;;;;;;4857401;29;20059;-83
2023/10/20 10:01:51;;;;;;;2.83;1.40;;;7.00;99.90;;;;;;4876464;29;20586;-82
2023/10/20 10:04:30;;;;;;;3.80;1.50;;;7.00;99.90;;;;;;4860321;29;20131;-82
2023/10/20 10:07:04;;;;;;;3.60;1.52;;;7.00;99.90;;;;;;4874661;29;20060;-82
2023/10/20 10:09:39;;;;;;;5.38;1.60;;;7.00;99.90;;;;;;4872761;29;20040;-82
2023/10/20 10:12:16;;;;;;;2.90;1.50;;;7.00;99.90;;;;;;4856925;29;20072;-82
2023/10/20 10:14:53;;;;;;;4.00;1.45;;;7.00;99.90;;;;;;4873721;29;20045;-83
2023/10/20 10:17:22;;;;;;;2.72;1.50;;;7.00;99.90;;;;;;4872372;29;20051;-82
2023/10/20 10:19:51;;;;;;;2.42;1.33;;;7.00;99.90;;;;;;4873163;29;20066;-82
2023/10/20 10:22:22;;;;;;;3.33;1.40;;;7.00;99.90;;;;;;4855885;29;20045;-82
2023/10/20 10:24:51;;;;;;;4.18;1.67;;;6.90;99.90;;;;;;4875856;29;20109;-84
2023/10/20 10:27:19;;;;;;;2.72;1.30;;;6.90;99.90;;;;;;4876827;29;20584;-83
2023/10/20 10:29:59;;;;;;;3.75;1.35;;;7.00;99.90;;;;;;4875051;29;20052;-82
2023/10/20 10:32:33;;;;;;;3.42;1.50;;;6.90;99.90;;;;;;4859591;29;20051;-84
2023/10/20 10:35:00;;;;;;;3.35;1.35;;;6.90;99.90;;;;;;4870738;29;20045;-82
2023/10/20 10:37:37;;;;;;;3.13;1.42;;;6.90;99.90;;;;;;4873424;29;20127;-82
2023/10/20 10:40:07;;;;;;;3.13;1.55;;;6.90;99.90;;;;;;4888505;29;20043;-81
2023/10/20 10:42:47;;;;;;;2.45;1.27;;;6.90;99.90;;;;;;4876622;29;20124;-82
2023/10/20 10:45:36;;;;;;;2.78;1.45;;;6.90;99.90;;;;;;4875381;29;20044;-81
2023/10/20 10:48:09;;;;;;;3.90;1.50;;;6.90;99.90;;;;;;4876361;29;20104;-81
2023/10/20 10:50:45;;;;;;;4.68;1.58;;;6.90;99.90;;;;;;4874315;29;20102;-82
2023/10/20 10:53:12;;;;;;;2.42;1.20;;;6.90;99.90;;;;;;4872324;29;20185;-81
2023/10/20 10:55:38;;;;;;;2.72;1.38;;;6.90;99.90;;;;;;4874681;29;20091;-82
2023/10/20 10:58:09;;;;;;;2.03;1.20;;;6.90;99.90;;;;;;4876776;29;20048;-82
2023/10/20 11:00:37;;;;;;;3.05;1.50;;;6.80;99.90;;;;;;4876684;29;20041;-82
2023/10/20 11:03:04;;;;;;;2.88;1.33;;;6.80;99.90;;;;;;4875012;29;20055;-82
2023/10/20 11:05:32;;;;;;;2.05;1.30;;;6.50;99.90;;;;;;4872633;29;20044;-82
2023/10/20 11:08:07;;;;;;;3.58;1.40;;;6.80;99.90;;;;;;4859369;29;20108;-81
2023/10/20 11:10:35;;;;;;;2.15;1.20;;;6.80;99.90;;;;;;4876131;29;20045;-81
2023/10/20 11:13:06;;;;;;;2.88;1.40;;;6.80;99.90;;;;;;4854886;29;20344;-81
2023/10/20 11:15:32;;;;;;;2.22;1.40;;;6.80;99.90;;;;;;4884809;29;20044;-82
2023/10/20 11:18:00;;;;;;;2.58;1.30;;;6.70;99.90;;;;;;4854363;29;20128;-81
2023/10/20 11:20:27;;;;;;;3.03;1.40;;;6.80;99.90;;;;;;4874312;29;20096;-81
2023/10/20 11:22:54;;;;;;;1.70;1.20;;;6.70;99.90;;;;;;4890917;29;20064;-83
2023/10/20 11:25:21;;;;;;;1.42;1.20;;;6.80;99.90;;;;;;4889231;29;20538;-81
2023/10/20 11:27:59;;;;;;;1.30;1.15;;;6.70;99.90;;;;;;4872797;29;20053;-80
2023/10/20 11:30:26;;;;;;;2.45;1.23;;;6.70;99.90;;;;;;4874978;29;20048;-81
2023/10/20 11:32:55;;;;;;;1.58;1.13;;;6.80;99.90;;;;;;4845809;29;20108;-81
2023/10/20 11:35:24;;;;;;;1.55;1.17;;;6.80;99.90;;;;;;4873321;29;20045;-81
2023/10/20 11:37:53;;;;;;;3.38;1.50;;;6.80;99.90;;;;;;4872844;29;20104;-82
2023/10/20 11:40:23;;;;;;;1.80;1.25;;;6.80;99.90;;;;;;4890704;29;20682;-82
2023/10/20 11:42:49;;;;;;;2.67;1.30;;;6.90;99.90;;;;;;4889536;29;20563;-81
2023/10/20 11:45:16;;;;;;;2.50;1.38;;;6.80;99.90;;;;;;4890570;29;20044;-82
2023/10/20 11:47:41;;;;;;;3.97;1.50;;;6.80;99.90;;;;;;4889708;29;20896;-81
2023/10/20 11:50:11;;;;;;;2.55;1.30;;;6.80;99.90;;;;;;4875258;29;20571;-81
2023/10/20 11:52:38;;;;;;;3.35;1.27;;;6.70;99.90;;;;;;4874141;29;20063;-82
2023/10/20 11:55:05;;;;;;;3.00;1.40;;;6.80;99.90;;;;;;4845080;29;20055;-80
2023/10/20 11:57:31;;;;;;;4.90;1.70;;;6.80;99.90;;;;;;4887814;29;20740;-81
2023/10/20 11:59:57;;;;;;;4.97;1.58;;;6.80;99.90;;;;;;4856549;29;20036;-81
2023/10/20 12:02:23;;;;;;;3.92;1.60;;;6.80;99.90;;;;;;4885359;29;20044;-82
2023/10/20 12:04:49;;;;;;;3.88;1.55;;;6.80;99.90;;;;;;4890148;29;20170;-81
2023/10/20 12:07:14;;;;;;;2.33;1.27;;;6.80;99.90;;;;;;4871622;29;20155;-80
2023/10/20 12:09:40;;;;;;;3.05;1.30;;;7.10;99.90;;;;;;4872569;29;20123;-84
2023/10/20 12:12:06;;;;;;;2.08;1.25;;;6.80;99.90;;;;;;4856967;29;20052;-82
2023/10/20 12:14:32;;;;;;;1.70;1.25;;;6.80;99.90;;;;;;4872086;29;20125;-81
2023/10/20 12:16:58;;;;;;;1.98;1.30;;;6.80;99.90;;;;;;4874291;29;20045;-81
2023/10/20 12:19:24;;;;;;;1.48;1.10;;;6.80;99.90;;;;;;4872736;29;20518;-81
2023/10/20 12:21:49;;;;;;;4.47;1.40;;;6.80;99.90;;;;;;4887982;29;20147;-81
2023/10/20 12:24:15;;;;;;;2.50;1.35;;;6.80;99.90;;;;;;4874545;29;20059;-80
2023/10/20 12:26:41;;;;;;;1.73;1.20;;;6.80;99.90;;;;;;4874311;29;20041;-81
2023/10/20 12:29:07;;;;;;;2.63;1.40;;;6.80;99.90;;;;;;4855566;29;20190;-81
2023/10/20 12:31:33;;;;;;;2.75;1.30;;;6.80;99.90;;;;;;4887098;29;20037;-81
2023/10/20 12:33:58;;;;;;;2.03;1.20;;;6.90;99.90;;;;;;4857772;29;20048;-81
2023/10/20 12:36:28;;;;;;;2.22;1.25;;;6.80;99.90;;;;;;4856792;29;20048;-82
2023/10/20 12:38:55;;;;;;;2.38;1.40;;;6.80;99.90;;;;;;4872829;29;20072;-81
2023/10/20 12:41:22;;;;;;;1.63;1.20;;;6.80;99.90;;;;;;4855824;29;20032;-83
2023/10/20 12:43:48;;;;;;;2.00;1.10;;;6.80;99.90;;;;;;4872682;29;20060;-81
2023/10/20 12:46:14;;;;;;;1.70;1.20;;;6.90;99.90;;;;;;4872186;29;20181;-81
2023/10/20 12:48:40;;;;;;;1.85;1.27;;;6.80;99.90;;;;;;4874151;29;20048;-81
2023/10/20 12:51:11;;;;;;;2.63;1.30;;;6.80;99.90;;;;;;4869921;29;20304;-81
2023/10/20 12:53:37;;;;;;;2.47;1.40;;;6.80;99.90;;;;;;4888174;29;20060;-80
2023/10/20 12:56:03;;;;;;;2.70;1.30;;;6.80;99.90;;;;;;4870404;29;20040;-81
2023/10/20 12:58:29;;;;;;;1.95;1.23;;;6.80;99.90;;;;;;4888833;29;20140;-80
2023/10/20 13:00:55;;;;;;;2.53;1.27;;;7.10;99.90;;;;;;4872858;29;20097;-80
2023/10/20 13:03:21;;;;;;;1.83;1.13;;;6.70;99.90;;;;;;4886441;29;20048;-80
2023/10/20 13:05:46;;;;;;;3.85;1.50;;;6.80;99.90;;;;;;4872285;29;20052;-80
2023/10/20 13:08:15;;;;;;;2.33;1.30;;;6.70;99.90;;;;;;4851938;29;20503;-80
2023/10/20 13:10:41;;;;;;;2.30;1.30;;;6.70;99.90;;;;;;4874401;29;20048;-80
2023/10/20 13:13:09;;;;;;;1.83;1.20;;;6.70;99.90;;;;;;4873793;29;20112;-81
2023/10/20 13:15:35;;;;;;;2.47;1.30;;;6.70;99.90;;;;;;4873275;29;20036;-80
2023/10/20 13:18:01;;;;;;;2.60;1.25;;;6.70;99.90;;;;;;4841786;29;21522;-81
2023/10/20 13:20:28;;;;;;;1.42;1.08;;;6.70;99.90;;;;;;4887453;29;20056;-81
2023/10/20 13:22:55;;;;;;;2.15;1.15;;;6.70;99.90;;;;;;4871290;29;20151;-81
2023/10/20 13:25:22;;;;;;;1.55;1.10;;;6.70;99.90;;;;;;4869499;29;20041;-82
2023/10/20 13:27:49;;;;;;;1.58;1.20;;;6.70;99.90;;;;;;4856644;29;20045;-81
2023/10/20 13:30:15;;;;;;;2.03;1.10;;;6.70;99.90;;;;;;4873042;29;20055;-82
2023/10/20 13:32:40;;;;;;;2.83;1.27;;;6.70;99.90;;;;;;4876888;29;20036;-81
2023/10/20 13:35:06;;;;;;;1.95;1.20;;;7.00;99.90;;;;;;4841228;29;20056;-81
2023/10/20 13:37:32;;;;;;;2.13;1.17;;;6.70;99.90;;;;;;4861943;29;20033;-80